Latest Coastal Weather Observations for Wyndham Airport

IDD60701

Issued at 9:21 pm CST Sunday 11 December 2016 (issued every 10 minutes, with the page automatically refreshed every 10 minutes)

About coastal observations | Map of coastal stations | Coastal observations for NT | Marine services | Other Formats
Station Details ID: 001006 Name: WYNDHAM AERO Lat: -15.51 Lon: 128.15 Height: 3.8 m
Data from the previous 72 hours. | See also: Recent months at Wyndham Airport
Date/Time
CST
Temp
°C
Wind Pressure Rain since
9am
mm
Weather Cloud Vis
km
Sea
Height
m
Swell
Dir  Spd
kts
Gust
kts
hPa Trend Height
m
Period
s
Dir
11/09:00pm 34.3 N 5 6 1006.5 - 0.4 - - - - - - -
11/08:30pm 34.6 N 5 6 1006.2 - 0.4 - - - - - - -
11/08:00pm 35.8 NW 3 6 1005.9 - 0.4 - - - - - - -
11/07:30pm 36.1 SE 3 6 1005.6 - 0.4 - - - - - - -
11/07:00pm 36.8 ESE 4 6 1005.2 - 0.4 - - - - - - -
11/06:30pm 37.6 SSE 7 10 1005.0 - 0.4 - - - - - - -
11/06:00pm 38.0 SSE 6 9 1005.1 - 0.4 - - - - - - -
11/05:30pm 38.6 SSE 7 12 1004.9 - 0.4 - - - - - - -
11/05:00pm 38.8 SSE 7 12 1004.8 - 0.4 - - - - - - -
11/04:30pm 38.6 SSE 8 13 1004.6 - 0.4 - - - - - - -
11/04:00pm 37.9 SSE 8 14 1005.0 - 0.4 - - - - - - -
11/03:30pm 37.8 SSE 9 15 1005.4 - 0.4 - - - - - - -
11/03:00pm 37.2 SSE 6 12 1006.2 - 0.4 - - - - - - -
11/02:30pm 36.5 SE 8 14 1006.8 - 0.4 - - - - - - -
11/02:00pm 36.9 SE 9 15 1007.4 - 0.4 - - - - - - -
11/01:30pm 34.9 S 5 8 1008.2 - 0.4 - - - - - - -
11/01:00pm 33.6 SW 6 8 1008.9 - 0.4 - - - - - - -
11/12:30pm 32.2 SSW 7 9 1009.3 - 0.4 - - - - - - -
11/12:00pm 30.0 S 8 10 1009.8 - 0.2 - - - - - - -
11/11:30am 28.4 SW 5 7 1010.0 - 0.2 - - - - - - -
11/11:00am 27.1 SSW 12 15 1010.4 - 0.2 - - - - - - -
11/10:30am 30.5 WSW 7 8 1010.8 - 0.0 - - - - - - -
11/10:00am 30.8 WNW 7 9 1010.8 - 0.0 - - - - - - -
11/09:30am 31.1 NNW 8 11 1010.7 - 0.0 - - - - - - -
11/09:00am 30.9 N 8 13 1010.4 - 0.0 - - - - - - -
11/08:30am 31.1 N 8 10 1010.0 - 0.0 - - - - - - -
11/08:00am 31.0 N 11 16 1009.6 - 0.0 - - - - - - -
11/07:30am 29.8 N 11 14 1009.2 - 0.0 - - - - - - -
11/07:00am 31.2 N 3 4 1008.5 - 0.0 - - - - - - -
11/06:30am 30.4 N 3 5 1007.9 - 0.0 - - - - - - -
11/06:00am 31.0 CALM 0 0 1007.4 - 0.0 - - - - - - -
11/05:30am 31.5 CALM 0 0 1007.3 - 0.0 - - - - - - -
11/05:00am 31.5 CALM 0 0 1007.0 - 0.0 - - - - - - -
11/04:30am 30.8 CALM 0 0 1006.8 - 0.0 - - - - - - -
11/04:00am 30.9 ENE 3 4 1006.4 - 0.0 - - - - - - -
11/03:30am 31.3 ESE 6 7 1006.6 - 0.0 - - - - - - -
11/03:00am 31.4 E 5 6 1006.6 - 0.0 - - - - - - -
11/02:30am 31.3 E 6 7 1006.4 - 0.0 - - - - - - -
11/02:00am 31.3 E 4 5 1006.5 - 0.0 - - - - - - -
11/01:30am 31.1 E 5 7 1006.7 - 0.0 - - - - - - -
11/01:00am 31.4 ESE 5 7 1007.1 - 0.0 - - - - - - -
11/12:30am 32.5 SSE 1 7 1007.2 - 0.0 - - - - - - -
11/12:00am 32.6 CALM 0 0 1007.3 - 0.0 - - - - - - -
 
Date/Time
CST
Temp
°C
Wind Pressure Rain since
9am
mm
Weather Cloud Vis
km
Sea
Height
m
Swell
Dir  Spd
kts
Gust
kts
hPa Trend Height
m
Period
s
Dir
10/11:30pm 32.4 CALM 0 0 1007.6 - 0.0 - - - - - - -
10/11:00pm 32.0 CALM 0 0 1007.7 - 0.0 - - - - - - -
10/10:30pm 32.0 E 3 4 1007.7 - 0.0 - - - - - - -
10/10:00pm 32.0 ESE 4 5 1007.7 - 0.0 - - - - - - -
10/09:30pm 32.2 ESE 6 7 1007.8 - 0.0 - - - - - - -
10/09:00pm 32.3 ESE 5 7 1007.8 - 0.0 - - - - - - -
10/08:30pm 33.0 E 7 9 1007.6 - 0.0 - - - - - - -
10/08:00pm 33.7 E 5 7 1007.1 - 0.0 - - - - - - -
10/07:30pm 33.7 E 5 7 1006.5 - 0.0 - - - - - - -
10/07:00pm 34.2 E 8 11 1006.3 - 0.0 - - - - - - -
10/06:30pm 34.6 ESE 14 19 1006.3 - 0.0 - - - - - - -
10/06:00pm 36.9 NE 2 6 1006.0 - 0.0 - - - - - - -
10/05:30pm 37.1 E 4 8 1005.9 - 0.0 - - - - - - -
10/05:00pm 37.5 SSW 5 9 1005.5 - 0.0 - - - - - - -
10/04:30pm 36.7 W 3 9 1005.8 - 0.0 - - - - - - -
10/04:00pm 36.4 SE 5 9 1006.2 - 0.0 - - - - - - -
10/03:30pm 36.2 W 2 7 1006.6 - 0.0 - - - - - - -
10/03:00pm 35.4 WSW 4 6 1007.1 - 0.0 - - - - - - -
10/02:30pm 35.3 WSW 5 8 1007.6 - 0.0 - - - - - - -
10/02:00pm 33.6 SSE 4 7 1008.2 - 0.0 - - - - - - -
10/01:30pm 32.2 SSE 5 8 1008.8 - 0.0 - - - - - - -
10/01:00pm 30.8 SSE 4 6 1009.4 - 0.0 - - - - - - -
10/12:30pm 30.0 W 4 5 1010.0 - 0.0 - - - - - - -
10/12:00pm 29.4 SW 2 5 1010.6 - 0.0 - - - - - - -
10/11:30am 28.6 SSW 2 4 1011.1 - 0.0 - - - - - - -
10/11:00am 28.3 SSW 3 5 1011.5 - 0.0 - - - - - - -
10/10:30am 28.2 SW 5 6 1011.4 - 0.0 - - - - - - -
10/10:00am 27.8 SSE 6 10 1011.1 - 0.0 - - - - - - -
10/09:30am 28.1 SE 8 10 1011.1 - 0.0 - - - - - - -
10/09:00am 28.0 SE 5 7 1011.2 - 0.0 - - - - - - -
10/08:30am 27.2 S 4 6 1010.6 - 0.0 - - - - - - -
10/08:00am 26.9 S 5 8 1010.2 - 0.0 - - - - - - -
10/07:30am 26.5 S 5 6 1010.4 - 0.0 - - - - - - -
10/07:00am 26.1 S 11 14 1010.6 - 0.0 - - - - - - -
10/06:30am 26.1 SSW 10 12 1010.0 - 0.0 - - - - - - -
10/06:00am 26.1 SSW 13 16 1009.7 - 0.0 - - - - - - -
10/05:30am 26.3 S 11 15 1009.2 - 0.0 - - - - - - -
10/05:00am 26.3 SE 11 17 1009.0 - 0.0 - - - - - - -
10/04:59am 26.6 SE 11 17 1008.9 - 0.0 - - - - - - -
10/04:35am 27.8 SSE 20 30 1008.4 - 0.0 - - - - - - -
10/04:30am 27.1 SE 22 30 1008.6 - 0.0 - - - - - - -
10/04:23am 26.9 SE 19 29 1008.8 - 0.0 - - - - - - -
10/04:18am 27.3 SE 13 24 1008.8 - 0.0 - - - - - - -
10/04:00am 28.4 S 11 16 1008.1 - 0.0 - - - - - - -
10/03:30am 29.0 SSW 13 18 1007.0 - 0.0 - - - - - - -
10/03:00am 31.2 WSW 14 19 1006.8 - 0.0 - - - - - - -
10/02:30am 32.4 NNW 11 15 1006.5 - 0.0 - - - - - - -
10/02:00am 33.2 NNW 6 9 1007.0 - 0.0 - - - - - - -
10/01:30am 33.4 NW 7 8 1006.5 - 0.0 - - - - - - -
10/01:00am 33.8 NW 11 14 1006.5 - 0.0 - - - - - - -
10/12:30am 33.7 NNW 8 10 1006.9 - 0.0 - - - - - - -
10/12:00am 33.9 NNW 8 11 1007.1 - 0.0 - - - - - - -
 
Date/Time
CST
Temp
°C
Wind Pressure Rain since
9am
mm
Weather Cloud Vis
km
Sea
Height
m
Swell
Dir  Spd
kts
Gust
kts
hPa Trend Height
m
Period
s
Dir
09/11:30pm 33.7 NNW 6 7 1007.4 - 0.0 - - - - - - -
09/11:00pm 33.9 NNW 6 10 1007.4 - 0.0 - - - - - - -
09/10:30pm 33.4 CALM 0 1 1007.4 - 0.0 - - - - - - -
09/10:00pm 33.6 WNW 6 8 1007.1 - 0.0 - - - - - - -
09/09:30pm 33.4 N 9 13 1006.6 - 0.0 - - - - - - -
09/09:00pm 33.5 N 10 14 1006.0 - 0.0 - - - - - - -
09/08:30pm 33.7 N 11 15 1005.6 - 0.0 - - - - - - -
09/08:00pm 34.5 NNE 13 19 1004.9 - 0.0 - - - - - - -
09/07:30pm 34.9 N 11 16 1004.8 - 0.0 - - - - - - -
09/07:00pm 35.5 N 10 14 1004.4 - 0.0 - - - - - - -
09/06:30pm 36.1 N 11 14 1004.0 - 0.0 - - - - - - -
09/06:00pm 36.6 N 11 15 1003.5 - 0.0 - - - - - - -
09/05:30pm 37.2 N 8 11 1003.2 - 0.0 - - - - - - -
09/05:00pm 37.5 NNE 8 12 1003.3 - 0.0 - - - - - - -
09/04:30pm 37.8 N 8 11 1003.6 - 0.0 - - - - - - -
09/04:00pm 38.8 NE 9 13 1003.6 - 0.0 - - - - - - -
09/03:30pm 38.5 NNE 11 16 1003.8 - 0.0 - - - - - - -
09/03:00pm 38.1 N 11 14 1003.9 - 0.0 - - - - - - -
09/02:30pm 38.1 NNW 9 14 1004.6 - 0.0 - - - - - - -
09/02:00pm 39.6 NNW 8 16 1004.7 - 0.0 - - - - - - -
09/01:30pm 38.6 N 9 15 1005.4 - 0.0 - - - - - - -
09/01:00pm 39.0 NNW 8 12 1005.7 - 0.0 - - - - - - -
09/12:30pm 37.8 NNW 5 11 1006.4 - 0.0 - - - - - - -
09/12:00pm 37.8 N 7 11 1006.6 - 0.0 - - - - - - -
09/11:30am 37.7 W 7 10 1006.9 - 0.0 - - - - - - -
09/11:00am 36.3 N 2 5 1007.1 - 0.0 - - - - - - -
09/10:30am 36.3 ESE 3 12 1007.2 - 0.0 - - - - - - -
09/10:00am 36.0 ESE 8 11 1007.7 - 0.0 - - - - - - -
09/09:30am 34.8 SSE 3 8 1007.9 - 0.0 - - - - - - -
09/09:00am 33.6 W 5 7 1007.9 - 0.0 - - - - - - -
09/08:30am 33.2 WSW 7 11 1007.6 - 0.0 - - - - - - -
09/08:00am 33.2 WSW 9 11 1007.1 - 0.0 - - - - - - -
09/07:30am 32.5 W 7 9 1006.7 - 0.0 - - - - - - -
09/07:00am 31.8 W 8 9 1006.4 - 0.0 - - - - - - -
09/06:30am 31.9 WSW 9 11 1006.2 - 0.0 - - - - - - -
09/06:00am 32.1 W 4 5 1005.5 - 0.0 - - - - - - -
09/05:30am 32.2 W 6 8 1005.0 - 0.0 - - - - - - -
09/05:00am 32.6 W 6 7 1004.8 - 0.0 - - - - - - -
09/04:30am 32.0 NW 5 8 1004.5 - 0.0 - - - - - - -
09/04:00am 32.7 WNW 5 7 1004.5 - 0.0 - - - - - - -
09/03:30am 33.2 WNW 7 8 1004.5 - 0.0 - - - - - - -
09/03:00am 33.3 WNW 8 9 1004.5 - 0.0 - - - - - - -
09/02:30am 33.2 W 8 10 1004.6 - 0.0 - - - - - - -
09/02:00am 33.4 W 6 7 1004.8 - 0.0 - - - - - - -
09/01:30am 33.8 W 10 11 1004.9 - 0.0 - - - - - - -
09/01:00am 34.3 W 8 11 1005.2 - 0.0 - - - - - - -
09/12:30am 34.2 NW 7 8 1005.4 - 0.0 - - - - - - -
09/12:00am 34.0 NNW 6 9 1005.4 - 0.0 - - - - - - -
 
Date/Time
CST
Temp
°C
Wind Pressure Rain since
9am
mm
Weather Cloud Vis
km
Sea
Height
m
Swell
Dir  Spd
kts
Gust
kts
hPa Trend Height
m
Period
s
Dir
08/11:30pm 33.3 NNW 2 3 1005.5 - 0.0 - - - - - - -
08/11:00pm 33.4 N 5 7 1005.4 - 0.0 - - - - - - -

Other Formats:

Comma delimited format used in spreadsheet applications
http://www.bom.gov.au/fwo/IDD60701/IDD60701.95214.axf

JavaScript Object Notation format (JSON) in row-major order
http://www.bom.gov.au/fwo/IDD60701/IDD60701.95214.json